Time;durP1;ratioP1;P1;durP2;ratioP2;P2;SDS_P1;SDS_P2;PMS_P1;PMS_P2;Temp;Humidity;BMP_temperature;BMP_pressure;BME280_temperature;BME280_humidity;BME280_pressure;Samples;Min_cycle;Max_cycle;Signal;HPM_P1;HPM_P2
2023/06/18 00:02:24;;;;;;;14.40;6.60;;;22.30;51.60;;;;;;5115546;28;20861;-72
2023/06/18 00:04:51;;;;;;;18.03;7.27;;;22.30;51.30;;;;;;5116141;28;20474;-71
2023/06/18 00:07:18;;;;;;;12.57;6.90;;;22.30;51.30;;;;;;5115878;28;20455;-71
2023/06/18 00:09:46;;;;;;;8.30;6.40;;;22.30;50.80;;;;;;5115969;28;20443;-72
2023/06/18 00:12:13;;;;;;;14.13;6.87;;;22.30;51.10;;;;;;5115053;28;21018;-72
2023/06/18 00:14:44;;;;;;;15.17;6.63;;;22.40;51.10;;;;;;5115814;28;20454;-71
2023/06/18 00:17:12;;;;;;;15.13;7.53;;;22.40;50.90;;;;;;5115562;28;20582;-73
2023/06/18 00:19:39;;;;;;;11.73;6.83;;;22.40;51.10;;;;;;5115584;28;20443;-71
2023/06/18 00:22:06;;;;;;;14.33;6.73;;;22.30;51.20;;;;;;5115509;28;20519;-71
2023/06/18 00:24:35;;;;;;;11.90;6.90;;;22.30;51.40;;;;;;5115715;28;20438;-71
2023/06/18 00:27:06;;;;;;;9.93;6.53;;;22.30;51.60;;;;;;5115761;28;20476;-71
2023/06/18 00:29:35;;;;;;;19.70;6.77;;;22.20;51.70;;;;;;5114674;28;20427;-71
2023/06/18 00:32:02;;;;;;;15.20;7.30;;;22.20;52.10;;;;;;5115488;28;20467;-71
2023/06/18 00:34:32;;;;;;;13.17;6.07;;;22.20;52.00;;;;;;5115954;28;20447;-71
2023/06/18 00:37:00;;;;;;;11.10;5.80;;;22.20;52.20;;;;;;5116058;28;20430;-71
2023/06/18 00:39:27;;;;;;;15.00;7.07;;;22.20;52.30;;;;;;5114689;28;20947;-71
2023/06/18 00:41:54;;;;;;;10.27;6.90;;;22.10;52.20;;;;;;5114160;28;20495;-72
2023/06/18 00:44:23;;;;;;;12.70;7.37;;;22.10;52.30;;;;;;5116059;28;20476;-71
2023/06/18 00:46:51;;;;;;;10.50;7.20;;;22.00;52.20;;;;;;5124310;28;20447;-71
2023/06/18 00:49:19;;;;;;;11.77;7.23;;;21.90;52.50;;;;;;5132916;28;20534;-71
2023/06/18 00:51:47;;;;;;;20.57;7.00;;;21.90;52.70;;;;;;5127484;28;20450;-72
2023/06/18 00:54:15;;;;;;;19.60;8.70;;;21.90;53.00;;;;;;5124337;28;20488;-71
2023/06/18 00:56:50;;;;;;;18.10;7.43;;;21.80;53.00;;;;;;5123667;28;20566;-71
2023/06/18 00:59:21;;;;;;;13.70;6.93;;;21.80;53.20;;;;;;5113522;28;20450;-71
2023/06/18 01:01:53;;;;;;;11.27;6.90;;;21.80;53.30;;;;;;5128993;27;20450;-71
2023/06/18 01:04:23;;;;;;;11.67;6.70;;;21.80;53.40;;;;;;5124684;28;20948;-71
2023/06/18 01:06:52;;;;;;;13.60;6.87;;;21.70;53.50;;;;;;5124370;28;20533;-71
2023/06/18 01:09:21;;;;;;;11.30;7.47;;;21.70;53.50;;;;;;5122865;28;20482;-71
2023/06/18 01:11:51;;;;;;;12.33;6.87;;;21.70;53.70;;;;;;5121461;28;20480;-71
2023/06/18 01:14:21;;;;;;;12.23;7.10;;;21.70;53.90;;;;;;5120068;28;20470;-71
2023/06/18 01:16:51;;;;;;;16.90;7.90;;;21.70;54.00;;;;;;5121177;28;20495;-71
2023/06/18 01:19:30;;;;;;;12.60;8.23;;;21.70;54.00;;;;;;5119697;28;20461;-71
2023/06/18 01:22:03;;;;;;;12.70;6.93;;;21.60;54.00;;;;;;5119138;28;20495;-71
2023/06/18 01:24:33;;;;;;;16.47;7.37;;;21.60;54.50;;;;;;5119509;28;20479;-71
2023/06/18 01:27:02;;;;;;;12.37;8.13;;;21.50;54.50;;;;;;5121787;28;20481;-71
2023/06/18 01:29:34;;;;;;;10.10;6.90;;;21.40;54.70;;;;;;5121467;28;20507;-71
2023/06/18 01:32:02;;;;;;;18.80;8.27;;;21.40;54.90;;;;;;5121605;27;20566;-71
2023/06/18 01:34:29;;;;;;;9.13;6.30;;;21.30;54.70;;;;;;5121178;28;20483;-71
2023/06/18 01:37:05;;;;;;;11.80;6.90;;;21.30;54.70;;;;;;5123775;28;20450;-71
2023/06/18 01:39:39;;;;;;;16.40;7.20;;;21.30;55.00;;;;;;5121869;28;20453;-71
2023/06/18 01:42:16;;;;;;;11.40;5.90;;;21.20;55.10;;;;;;5120042;28;20553;-71
2023/06/18 01:44:45;;;;;;;16.47;7.40;;;21.10;55.20;;;;;;5120536;28;20468;-71
2023/06/18 01:47:16;;;;;;;16.80;6.93;;;21.10;55.40;;;;;;5120215;28;20446;-71
2023/06/18 01:49:45;;;;;;;12.87;7.20;;;21.00;55.50;;;;;;5119714;28;20504;-71
2023/06/18 01:52:15;;;;;;;14.13;7.50;;;21.00;55.60;;;;;;5119332;28;20880;-71
2023/06/18 01:54:46;;;;;;;11.10;7.27;;;21.00;55.70;;;;;;5120377;27;20466;-71
2023/06/18 01:57:13;;;;;;;13.30;7.10;;;20.90;55.90;;;;;;5121512;28;20431;-71
2023/06/18 01:59:41;;;;;;;8.60;6.37;;;20.80;56.10;;;;;;5119783;28;20454;-71
2023/06/18 02:02:08;;;;;;;17.67;7.13;;;20.70;56.30;;;;;;5120195;28;20838;-72
2023/06/18 02:04:36;;;;;;;12.70;7.37;;;20.70;56.30;;;;;;5119719;28;20966;-71
2023/06/18 02:07:04;;;;;;;11.80;6.90;;;20.70;56.60;;;;;;5119541;28;20446;-71
2023/06/18 02:09:31;;;;;;;17.83;7.17;;;20.60;56.90;;;;;;5118386;28;21002;-71
2023/06/18 02:12:00;;;;;;;15.80;6.57;;;20.60;57.10;;;;;;5119810;28;20834;-71
2023/06/18 02:14:27;;;;;;;14.07;6.77;;;20.60;57.30;;;;;;5119011;28;20485;-71
2023/06/18 02:16:55;;;;;;;12.73;7.23;;;20.50;57.30;;;;;;5120419;28;20455;-71
2023/06/18 02:19:22;;;;;;;10.37;6.07;;;20.50;57.50;;;;;;5118396;28;20455;-71
2023/06/18 02:21:50;;;;;;;7.43;6.10;;;20.50;57.50;;;;;;5117964;28;20439;-71
2023/06/18 02:24:19;;;;;;;13.20;6.33;;;20.50;57.80;;;;;;5119437;28;20446;-71
2023/06/18 02:26:46;;;;;;;15.83;6.80;;;20.50;58.00;;;;;;5119551;28;20457;-71
2023/06/18 02:29:14;;;;;;;13.13;6.13;;;20.50;57.90;;;;;;5119285;28;20479;-71
2023/06/18 02:31:41;;;;;;;11.50;7.17;;;20.50;57.90;;;;;;5119347;28;20439;-71
2023/06/18 02:34:09;;;;;;;9.83;6.07;;;20.50;58.00;;;;;;5119371;28;20474;-71
2023/06/18 02:36:38;;;;;;;9.83;6.80;;;20.40;57.90;;;;;;5119257;28;20446;-71
2023/06/18 02:39:08;;;;;;;12.10;6.80;;;20.30;58.00;;;;;;5119646;28;20500;-72
2023/06/18 02:41:34;;;;;;;10.00;6.97;;;20.30;58.30;;;;;;5119748;28;20451;-71
2023/06/18 02:44:02;;;;;;;13.10;6.40;;;20.30;58.20;;;;;;5120314;28;20447;-71
2023/06/18 02:46:28;;;;;;;15.57;7.07;;;20.20;58.10;;;;;;5118445;28;20443;-71
2023/06/18 02:48:55;;;;;;;10.80;6.93;;;20.20;58.40;;;;;;5119579;28;20451;-71
2023/06/18 02:51:22;;;;;;;11.83;6.83;;;20.20;58.70;;;;;;5124192;28;20450;-71
2023/06/18 02:53:49;;;;;;;9.37;6.80;;;20.20;58.80;;;;;;5127587;28;20482;-71
2023/06/18 02:56:18;;;;;;;10.13;7.83;;;20.10;58.90;;;;;;5124037;28;20446;-71
2023/06/18 02:58:46;;;;;;;9.73;7.00;;;20.20;59.10;;;;;;5120978;28;20462;-71
2023/06/18 03:01:13;;;;;;;7.33;6.50;;;20.10;59.00;;;;;;5120432;28;20507;-71
2023/06/18 03:03:39;;;;;;;9.83;7.30;;;20.10;59.20;;;;;;5120700;28;20463;-71
2023/06/18 03:06:06;;;;;;;12.77;8.07;;;20.00;59.20;;;;;;5120914;28;20453;-71
2023/06/18 03:08:33;;;;;;;8.17;6.53;;;20.00;59.20;;;;;;5119170;28;20500;-71
2023/06/18 03:10:59;;;;;;;8.00;7.20;;;20.00;59.00;;;;;;5119627;28;20450;-71
2023/06/18 03:13:28;;;;;;;10.13;7.50;;;19.90;58.90;;;;;;5120346;28;20488;-71
2023/06/18 03:15:55;;;;;;;11.40;6.80;;;19.90;58.70;;;;;;5120731;28;20442;-71
2023/06/18 03:18:22;;;;;;;14.10;7.13;;;19.90;59.00;;;;;;5118525;28;20493;-71
2023/06/18 03:20:50;;;;;;;9.60;6.57;;;19.80;58.50;;;;;;5124681;28;20443;-72
2023/06/18 03:23:17;;;;;;;8.53;5.90;;;19.70;58.60;;;;;;5127018;28;20448;-71
2023/06/18 03:25:46;;;;;;;10.83;6.43;;;19.60;58.50;;;;;;5124011;28;20505;-72
2023/06/18 03:28:14;;;;;;;11.30;7.83;;;19.60;58.70;;;;;;5120045;28;20496;-71
2023/06/18 03:30:43;;;;;;;10.20;6.83;;;19.50;58.80;;;;;;5120830;28;20450;-71
2023/06/18 03:33:10;;;;;;;9.30;7.23;;;19.60;59.00;;;;;;5119100;28;20835;-71
2023/06/18 03:35:38;;;;;;;15.50;6.73;;;19.60;59.10;;;;;;5119236;28;20479;-71
2023/06/18 03:38:05;;;;;;;10.53;6.80;;;19.50;59.20;;;;;;5118887;28;20990;-71
2023/06/18 03:40:32;;;;;;;15.73;7.47;;;19.50;59.30;;;;;;5118593;28;20877;-71
2023/06/18 03:42:59;;;;;;;9.67;7.23;;;19.40;59.50;;;;;;5118157;28;20466;-71
2023/06/18 03:45:26;;;;;;;8.83;6.83;;;19.40;59.50;;;;;;5118621;28;20443;-71
2023/06/18 03:47:54;;;;;;;11.63;6.50;;;19.40;59.80;;;;;;5118215;28;20443;-71
2023/06/18 03:50:21;;;;;;;10.83;6.90;;;19.40;59.70;;;;;;5118375;28;20962;-71
2023/06/18 03:52:48;;;;;;;13.20;7.03;;;19.40;59.70;;;;;;5117142;28;20478;-71
2023/06/18 03:55:15;;;;;;;21.03;7.70;;;19.40;59.60;;;;;;5118728;28;20479;-71
2023/06/18 03:57:42;;;;;;;12.20;6.90;;;19.40;59.60;;;;;;5119235;28;20477;-71
2023/06/18 04:00:10;;;;;;;15.13;8.07;;;19.40;59.80;;;;;;5121782;28;20450;-71
2023/06/18 04:02:38;;;;;;;8.37;6.30;;;19.30;59.70;;;;;;5120216;28;20489;-71
2023/06/18 04:05:12;;;;;;;10.30;6.97;;;19.30;59.70;;;;;;5119069;28;20443;-71
2023/06/18 04:07:39;;;;;;;10.70;6.90;;;19.20;59.80;;;;;;5117999;28;20463;-71
2023/06/18 04:10:06;;;;;;;9.67;7.20;;;19.20;59.80;;;;;;5117222;28;20483;-71
2023/06/18 04:12:33;;;;;;;9.70;7.00;;;19.30;59.80;;;;;;5118333;28;20470;-71
2023/06/18 04:14:59;;;;;;;7.90;6.67;;;19.30;59.80;;;;;;5117880;27;20486;-71
2023/06/18 04:17:27;;;;;;;10.37;7.00;;;19.30;60.00;;;;;;5102914;28;20474;-72
2023/06/18 04:19:54;;;;;;;9.07;6.90;;;19.40;60.30;;;;;;5126808;28;20440;-71
2023/06/18 04:22:25;;;;;;;8.47;6.50;;;19.50;60.60;;;;;;5118225;28;20994;-71
2023/06/18 04:24:53;;;;;;;9.27;6.87;;;19.50;60.70;;;;;;5117395;28;20451;-71
2023/06/18 04:27:20;;;;;;;9.70;6.47;;;19.60;61.50;;;;;;5118062;28;20451;-71
2023/06/18 04:29:51;;;;;;;8.07;6.90;;;19.80;61.60;;;;;;5118132;28;20447;-71
2023/06/18 04:32:18;;;;;;;9.67;7.17;;;19.90;61.30;;;;;;5117800;28;20458;-71
2023/06/18 04:34:44;;;;;;;7.73;6.80;;;20.00;60.30;;;;;;5117638;28;20496;-71
2023/06/18 04:37:11;;;;;;;7.53;6.37;;;20.10;59.40;;;;;;5118652;28;20457;-71
2023/06/18 04:39:40;;;;;;;7.37;6.40;;;20.30;59.00;;;;;;5117906;28;20447;-71
2023/06/18 04:42:08;;;;;;;7.23;6.50;;;20.40;58.90;;;;;;5117940;28;20549;-71
2023/06/18 04:44:36;;;;;;;7.60;6.80;;;20.50;57.70;;;;;;5118637;28;20443;-71
2023/06/18 04:47:03;;;;;;;7.13;6.43;;;20.60;57.20;;;;;;5100284;28;20468;-71
2023/06/18 04:49:33;;;;;;;10.93;6.40;;;20.70;57.10;;;;;;5118328;28;20443;-71
2023/06/18 04:52:00;;;;;;;10.57;6.80;;;20.80;57.00;;;;;;5118862;28;21023;-72
2023/06/18 04:54:28;;;;;;;7.60;6.90;;;20.90;57.00;;;;;;5119041;28;20481;-71
2023/06/18 04:56:57;;;;;;;7.83;6.13;;;21.00;56.60;;;;;;5116567;28;20461;-71
2023/06/18 04:59:25;;;;;;;6.60;6.03;;;21.00;56.30;;;;;;5116902;28;20451;-71
2023/06/18 05:01:52;;;;;;;9.30;7.23;;;21.10;55.90;;;;;;5117559;28;20467;-71
2023/06/18 05:04:19;;;;;;;7.90;7.10;;;21.20;55.70;;;;;;5117581;28;20446;-72
2023/06/18 05:06:46;;;;;;;7.83;7.03;;;21.30;55.50;;;;;;5117562;28;20455;-72
2023/06/18 05:09:13;;;;;;;8.30;6.83;;;21.40;54.90;;;;;;5116192;28;20451;-72
2023/06/18 05:11:40;;;;;;;10.83;8.17;;;21.50;54.90;;;;;;5116364;28;20840;-71
2023/06/18 05:14:08;;;;;;;7.30;6.63;;;21.50;54.70;;;;;;5114663;28;20520;-71
2023/06/18 05:16:35;;;;;;;7.93;6.97;;;21.60;54.50;;;;;;5115518;28;20442;-71
2023/06/18 05:19:03;;;;;;;8.10;7.30;;;21.60;54.40;;;;;;5115463;28;20481;-71
2023/06/18 05:21:29;;;;;;;8.30;7.40;;;21.70;54.30;;;;;;5116124;28;20457;-72
2023/06/18 05:23:56;;;;;;;10.70;7.90;;;21.70;54.50;;;;;;5118582;28;20447;-71
2023/06/18 05:26:23;;;;;;;9.87;7.77;;;21.80;54.80;;;;;;5125553;28;20453;-70
2023/06/18 05:28:52;;;;;;;10.10;8.33;;;21.80;54.50;;;;;;5119074;28;20443;-70
2023/06/18 05:31:20;;;;;;;10.37;7.33;;;21.80;54.50;;;;;;5114527;28;20446;-71
2023/06/18 05:33:47;;;;;;;7.93;7.20;;;21.90;54.60;;;;;;5118519;28;20473;-70
2023/06/18 05:36:15;;;;;;;8.53;7.53;;;21.90;54.30;;;;;;5116972;28;20458;-72
2023/06/18 05:38:42;;;;;;;6.80;6.20;;;21.90;54.30;;;;;;5118608;28;20439;-72
2023/06/18 05:41:09;;;;;;;8.53;7.70;;;22.00;54.00;;;;;;5127780;28;20502;-73
2023/06/18 05:43:35;;;;;;;8.40;7.60;;;22.00;53.90;;;;;;5125107;28;20463;-73
2023/06/18 05:46:02;;;;;;;9.77;8.20;;;22.00;53.70;;;;;;5121469;28;20867;-73
2023/06/18 05:48:31;;;;;;;12.13;8.27;;;22.10;54.00;;;;;;5120421;28;20822;-73
2023/06/18 05:50:57;;;;;;;9.70;8.70;;;22.10;53.70;;;;;;5126310;28;20446;-73
2023/06/18 05:53:26;;;;;;;9.97;8.07;;;22.10;53.40;;;;;;5125708;28;20459;-72
2023/06/18 05:55:53;;;;;;;8.90;8.00;;;22.20;53.50;;;;;;5124404;28;20486;-72
2023/06/18 05:58:20;;;;;;;15.30;10.07;;;22.20;53.70;;;;;;5124453;28;20442;-72
2023/06/18 06:00:47;;;;;;;8.73;7.93;;;22.30;53.90;;;;;;5125672;27;20448;-72
2023/06/18 06:03:14;;;;;;;8.47;7.07;;;22.40;53.70;;;;;;5124487;27;20573;-72
2023/06/18 06:05:42;;;;;;;8.47;7.43;;;22.50;54.10;;;;;;5123561;28;20473;-72
2023/06/18 06:08:09;;;;;;;8.70;7.57;;;22.70;54.00;;;;;;5117782;28;20454;-72
2023/06/18 06:10:36;;;;;;;11.10;7.47;;;22.80;53.90;;;;;;5116743;28;20466;-72
2023/06/18 06:13:03;;;;;;;8.10;7.40;;;22.90;53.80;;;;;;5117162;28;20864;-72
2023/06/18 06:15:30;;;;;;;9.23;8.50;;;23.00;53.50;;;;;;5117302;28;20486;-72
2023/06/18 06:17:57;;;;;;;8.07;7.33;;;23.10;52.90;;;;;;5118953;28;20485;-73
2023/06/18 06:20:24;;;;;;;8.53;7.37;;;23.20;52.90;;;;;;5121062;28;20435;-72
2023/06/18 06:22:54;;;;;;;8.23;6.87;;;23.30;51.90;;;;;;5115802;28;20477;-72
2023/06/18 06:25:20;;;;;;;9.27;7.83;;;23.40;51.60;;;;;;5116693;28;20447;-72
2023/06/18 06:27:47;;;;;;;12.50;8.17;;;23.50;51.30;;;;;;5116576;28;20451;-72
2023/06/18 06:30:14;;;;;;;8.47;7.57;;;23.50;51.50;;;;;;5116380;28;20974;-70
2023/06/18 06:32:41;;;;;;;7.10;6.30;;;23.60;50.80;;;;;;5117966;28;20816;-71
2023/06/18 06:35:08;;;;;;;7.93;7.00;;;23.80;48.20;;;;;;5121847;28;20478;-71
2023/06/18 06:37:43;;;;;;;9.00;7.10;;;23.90;48.00;;;;;;5135756;28;20461;-71
2023/06/18 06:40:13;;;;;;;9.57;6.77;;;24.10;48.00;;;;;;5120441;28;20450;-71
2023/06/18 06:42:41;;;;;;;9.83;7.20;;;24.30;48.20;;;;;;5116001;28;20459;-70
2023/06/18 06:45:09;;;;;;;10.93;7.10;;;24.50;48.20;;;;;;5116165;28;20431;-70
2023/06/18 06:47:36;;;;;;;8.07;7.27;;;24.70;48.10;;;;;;5115210;28;20451;-70
2023/06/18 06:50:07;;;;;;;8.47;7.77;;;24.80;47.80;;;;;;5116139;28;20961;-70
2023/06/18 06:52:34;;;;;;;8.60;7.37;;;25.00;47.60;;;;;;5115818;28;21064;-70
2023/06/18 06:55:01;;;;;;;8.77;7.10;;;25.20;47.30;;;;;;5115320;28;20566;-70
2023/06/18 06:57:29;;;;;;;8.90;6.90;;;25.40;47.00;;;;;;5116698;28;20804;-70
2023/06/18 06:59:56;;;;;;;8.13;6.30;;;25.60;46.80;;;;;;5116958;28;20443;-70
2023/06/18 07:02:23;;;;;;;6.67;5.97;;;25.80;46.20;;;;;;5116722;28;20475;-70
2023/06/18 07:04:50;;;;;;;7.70;6.67;;;25.90;45.80;;;;;;5116225;28;20454;-70
2023/06/18 07:07:17;;;;;;;8.00;6.20;;;26.10;44.90;;;;;;5115608;28;20482;-70
2023/06/18 07:09:45;;;;;;;8.00;6.50;;;26.30;44.40;;;;;;5116744;28;20465;-69
2023/06/18 07:12:12;;;;;;;7.20;6.37;;;26.50;43.40;;;;;;5116117;28;20554;-70
2023/06/18 07:14:42;;;;;;;7.03;6.30;;;26.60;42.70;;;;;;5116696;28;20507;-70
2023/06/18 07:17:09;;;;;;;8.80;7.33;;;26.70;42.30;;;;;;5116749;28;20442;-70
2023/06/18 07:19:36;;;;;;;6.90;6.00;;;26.70;41.50;;;;;;5116010;28;20450;-70
2023/06/18 07:22:06;;;;;;;7.93;6.63;;;26.60;41.60;;;;;;5115804;28;20541;-70
2023/06/18 07:24:34;;;;;;;8.23;6.30;;;26.60;41.60;;;;;;5115669;28;20451;-70
2023/06/18 07:27:05;;;;;;;8.07;6.83;;;26.50;41.50;;;;;;5116690;28;20457;-71
2023/06/18 07:29:31;;;;;;;9.20;7.00;;;26.40;41.60;;;;;;5115595;28;20505;-69
2023/06/18 07:32:01;;;;;;;7.20;6.50;;;26.40;41.70;;;;;;5114777;28;20502;-71
2023/06/18 07:34:28;;;;;;;6.93;6.27;;;26.40;42.10;;;;;;5114582;28;20451;-71
2023/06/18 07:36:56;;;;;;;6.73;6.03;;;26.50;42.90;;;;;;5115327;28;20953;-69
2023/06/18 07:39:25;;;;;;;7.20;6.07;;;26.70;43.30;;;;;;5115374;28;20458;-68
2023/06/18 07:41:52;;;;;;;8.20;6.13;;;27.00;43.00;;;;;;5114952;28;20462;-69
2023/06/18 07:44:18;;;;;;;7.60;5.73;;;27.30;42.60;;;;;;5114832;28;20450;-68
2023/06/18 07:46:46;;;;;;;7.37;5.90;;;27.60;41.70;;;;;;5114738;28;20447;-68
2023/06/18 07:49:16;;;;;;;6.90;6.27;;;27.90;40.50;;;;;;5114732;28;20457;-68
2023/06/18 07:51:45;;;;;;;6.43;5.83;;;28.30;39.50;;;;;;5114771;28;20451;-68
2023/06/18 07:54:12;;;;;;;7.20;6.50;;;28.80;39.00;;;;;;5114498;28;20943;-67
2023/06/18 07:56:38;;;;;;;7.40;5.60;;;29.20;36.40;;;;;;5115640;28;20889;-70
2023/06/18 07:59:07;;;;;;;5.90;5.40;;;29.60;35.30;;;;;;5115632;28;20453;-66
2023/06/18 08:01:34;;;;;;;6.90;6.10;;;29.90;35.60;;;;;;5115283;28;20471;-71
2023/06/18 08:04:04;;;;;;;6.50;5.90;;;30.10;35.50;;;;;;5123697;28;20508;-70
2023/06/18 08:06:37;;;;;;;6.37;5.77;;;30.30;35.40;;;;;;5128447;28;20431;-70
2023/06/18 08:09:04;;;;;;;6.33;5.83;;;30.40;34.30;;;;;;5123696;28;20427;-71
2023/06/18 08:11:31;;;;;;;7.30;6.70;;;30.50;34.20;;;;;;5119241;28;20439;-70
2023/06/18 08:13:58;;;;;;;6.23;5.73;;;30.50;34.70;;;;;;5117049;28;20446;-71
2023/06/18 08:16:25;;;;;;;6.47;5.80;;;30.60;35.00;;;;;;5117520;28;20485;-72
2023/06/18 08:18:53;;;;;;;6.00;5.50;;;30.60;35.40;;;;;;5116004;28;20454;-72
2023/06/18 08:21:21;;;;;;;6.63;5.90;;;30.70;36.20;;;;;;5115421;28;20967;-70
2023/06/18 08:23:50;;;;;;;10.07;5.70;;;30.60;35.30;;;;;;5115077;28;20470;-71
2023/06/18 08:26:19;;;;;;;5.43;5.03;;;30.40;33.20;;;;;;5115259;28;20442;-71
2023/06/18 08:28:46;;;;;;;5.87;5.37;;;30.40;34.10;;;;;;5116479;28;20508;-73
2023/06/18 08:31:13;;;;;;;7.83;6.50;;;30.40;34.70;;;;;;5121988;28;20450;-71
2023/06/18 08:33:40;;;;;;;6.60;5.80;;;30.20;32.70;;;;;;5121619;28;20482;-70
2023/06/18 08:36:15;;;;;;;12.33;5.30;;;30.20;33.20;;;;;;5121478;28;20581;-71
2023/06/18 08:38:45;;;;;;;6.07;5.43;;;30.10;34.30;;;;;;5119167;28;20444;-70
2023/06/18 08:41:14;;;;;;;9.20;6.50;;;30.20;33.70;;;;;;5118312;28;20439;-70
2023/06/18 08:43:41;;;;;;;9.93;5.47;;;30.30;34.10;;;;;;5118857;28;20489;-70
2023/06/18 08:46:11;;;;;;;11.13;6.27;;;30.40;34.20;;;;;;5120577;28;20439;-71
2023/06/18 08:48:47;;;;;;;8.37;6.83;;;30.70;33.00;;;;;;5119918;28;21014;-71
2023/06/18 08:51:16;;;;;;;5.83;5.33;;;30.80;32.80;;;;;;5119188;28;20434;-69
2023/06/18 08:53:46;;;;;;;9.33;5.10;;;31.00;32.30;;;;;;5118435;28;20466;-69
2023/06/18 08:56:22;;;;;;;8.33;5.40;;;31.00;30.70;;;;;;5125871;28;20837;-67
2023/06/18 08:58:51;;;;;;;7.50;5.40;;;31.10;32.00;;;;;;5102148;28;20445;-67
2023/06/18 09:01:20;;;;;;;5.00;4.57;;;31.20;30.10;;;;;;5102479;28;20458;-66
2023/06/18 09:03:47;;;;;;;6.50;5.57;;;31.40;30.00;;;;;;5108322;28;20468;-66
2023/06/18 09:06:14;;;;;;;6.90;5.53;;;31.60;29.70;;;;;;5100229;28;20446;-68
2023/06/18 09:08:42;;;;;;;9.03;5.53;;;31.90;29.90;;;;;;5104279;28;20453;-66
2023/06/18 09:11:09;;;;;;;5.70;5.10;;;32.00;28.90;;;;;;5120565;28;20452;-66
2023/06/18 09:13:41;;;;;;;5.67;5.13;;;32.30;30.00;;;;;;5121505;28;20466;-66
2023/06/18 09:16:12;;;;;;;5.93;5.33;;;32.60;29.70;;;;;;5120481;28;20466;-67
2023/06/18 09:18:41;;;;;;;6.43;5.83;;;32.80;28.80;;;;;;5121057;28;20457;-66
2023/06/18 09:21:09;;;;;;;6.10;5.70;;;32.80;29.30;;;;;;5120362;28;20434;-67
2023/06/18 09:23:35;;;;;;;5.83;5.43;;;33.10;29.00;;;;;;5120227;28;20841;-66
2023/06/18 09:26:05;;;;;;;5.80;5.27;;;33.20;28.00;;;;;;5120881;28;20442;-66
2023/06/18 09:28:33;;;;;;;7.87;5.73;;;33.20;28.70;;;;;;5122993;28;20453;-70
2023/06/18 09:31:03;;;;;;;6.00;5.17;;;33.20;28.60;;;;;;5124360;28;20823;-72
2023/06/18 09:33:32;;;;;;;6.13;5.63;;;33.40;29.30;;;;;;5126537;28;20465;-71
2023/06/18 09:36:05;;;;;;;5.40;4.90;;;33.70;29.20;;;;;;5121681;28;20892;-72
2023/06/18 09:38:39;;;;;;;7.00;6.10;;;34.00;28.30;;;;;;5124180;28;20458;-72
2023/06/18 09:41:14;;;;;;;6.60;5.97;;;34.30;28.40;;;;;;5129561;28;20430;-73
2023/06/18 09:43:47;;;;;;;6.60;5.90;;;34.60;27.20;;;;;;5126054;28;20494;-73
2023/06/18 09:46:18;;;;;;;6.30;5.73;;;34.90;26.60;;;;;;5125263;28;20565;-72
2023/06/18 09:48:48;;;;;;;5.70;5.20;;;35.20;27.30;;;;;;5124079;28;20430;-73
2023/06/18 09:51:18;;;;;;;6.30;5.77;;;35.50;27.30;;;;;;5106527;28;20447;-72
2023/06/18 09:53:45;;;;;;;7.37;5.90;;;35.80;25.30;;;;;;5097926;28;20467;-71
2023/06/18 09:56:15;;;;;;;6.03;5.63;;;36.00;24.50;;;;;;5098565;28;20829;-72
2023/06/18 09:58:43;;;;;;;5.90;4.80;;;36.20;24.60;;;;;;5100702;28;20434;-70
2023/06/18 10:01:17;;;;;;;6.10;5.63;;;36.60;25.10;;;;;;5100530;28;20455;-69
2023/06/18 10:03:47;;;;;;;5.60;5.10;;;37.00;25.10;;;;;;5102275;28;20221;-69
2023/06/18 10:06:20;;;;;;;6.53;5.22;;;37.60;25.00;;;;;;5105638;28;20242;-71
2023/06/18 10:08:48;;;;;;;5.88;5.47;;;38.10;22.90;;;;;;5102060;28;20255;-71
2023/06/18 10:11:16;;;;;;;6.32;5.72;;;38.50;22.30;;;;;;5099414;28;20627;-72
2023/06/18 10:13:50;;;;;;;5.32;4.75;;;38.80;21.60;;;;;;5098572;28;20249;-70
2023/06/18 10:16:29;;;;;;;8.27;5.25;;;39.00;21.70;;;;;;5104524;28;20235;-70
2023/06/18 10:19:03;;;;;;;5.80;5.38;;;39.10;22.10;;;;;;5102009;28;20205;-71
2023/06/18 10:21:32;;;;;;;6.50;5.07;;;38.90;21.30;;;;;;5104628;28;20248;-71
2023/06/18 10:24:14;;;;;;;5.82;5.38;;;38.70;22.20;;;;;;5107347;28;20681;-72
2023/06/18 10:26:43;;;;;;;5.53;5.03;;;38.80;22.70;;;;;;5107210;28;20181;-69
2023/06/18 10:29:11;;;;;;;5.57;5.15;;;39.10;22.60;;;;;;5109139;28;20205;-69
2023/06/18 10:31:42;;;;;;;5.88;5.30;;;39.40;22.30;;;;;;5111880;28;20217;-69
2023/06/18 10:34:13;;;;;;;6.30;5.78;;;39.80;22.00;;;;;;5112957;28;20190;-69
2023/06/18 10:36:40;;;;;;;5.47;5.07;;;40.00;21.60;;;;;;5108759;28;20243;-69
2023/06/18 10:39:07;;;;;;;5.50;5.00;;;40.30;20.20;;;;;;5108475;28;20201;-69
2023/06/18 10:41:35;;;;;;;5.55;5.15;;;40.50;20.40;;;;;;5107820;28;20212;-68
2023/06/18 10:44:02;;;;;;;5.70;5.30;;;41.00;20.40;;;;;;5106493;28;20291;-69
2023/06/18 10:46:34;;;;;;;5.60;5.10;;;41.70;19.90;;;;;;5106220;28;20260;-70
2023/06/18 10:49:20;;;;;;;8.90;5.00;;;42.20;18.60;;;;;;5106449;28;20186;-70
2023/06/18 10:52:25;;;;;;;5.35;4.85;;;42.60;17.60;;;;;;5104410;28;20200;-69
2023/06/18 10:54:57;;;;;;;5.63;5.18;;;42.40;17.10;;;;;;5106434;28;20192;-71
2023/06/18 10:57:26;;;;;;;8.15;5.43;;;42.10;17.80;;;;;;5105320;28;20208;-71
2023/06/18 10:59:56;;;;;;;6.00;5.43;;;42.00;18.20;;;;;;5104745;28;20197;-70
2023/06/18 11:02:32;;;;;;;5.65;5.20;;;42.20;18.30;;;;;;5104457;28;20232;-71
2023/06/18 11:05:01;;;;;;;6.22;5.63;;;42.50;18.70;;;;;;5105732;28;20239;-71
2023/06/18 11:07:28;;;;;;;5.97;5.40;;;42.60;18.70;;;;;;5104385;28;20203;-74
2023/06/18 11:09:57;;;;;;;7.90;5.30;;;42.40;18.80;;;;;;5099905;28;20640;-72
2023/06/18 11:12:26;;;;;;;5.75;5.25;;;41.90;18.50;;;;;;5099013;28;20263;-73
2023/06/18 11:15:23;;;;;;;6.00;5.60;;;41.50;18.70;;;;;;5100086;28;20205;-73
2023/06/18 11:17:51;;;;;;;6.03;5.40;;;41.00;19.60;;;;;;4997694;28;20212;-72
2023/06/18 11:20:22;;;;;;;7.22;6.03;;;40.60;19.70;;;;;;5077344;28;20208;-72
2023/06/18 11:22:55;;;;;;;6.65;5.68;;;40.20;20.10;;;;;;5095895;28;20224;-72
2023/06/18 11:25:23;;;;;;;5.60;5.13;;;39.80;21.00;;;;;;5096048;28;20190;-70
2023/06/18 11:27:50;;;;;;;6.35;5.78;;;39.80;20.60;;;;;;5096943;28;20575;-70
2023/06/18 11:30:19;;;;;;;6.00;5.60;;;39.90;21.30;;;;;;5098940;28;20209;-71
2023/06/18 11:32:46;;;;;;;5.90;5.50;;;40.00;21.30;;;;;;5096112;28;20256;-71
2023/06/18 11:35:14;;;;;;;5.65;5.25;;;40.30;21.60;;;;;;5093841;28;20736;-72
2023/06/18 11:37:45;;;;;;;5.68;5.28;;;40.50;21.50;;;;;;5095059;28;20225;-72
2023/06/18 11:40:12;;;;;;;7.88;5.65;;;40.70;21.10;;;;;;5094856;28;20189;-71
2023/06/18 11:42:50;;;;;;;5.60;5.10;;;40.90;21.20;;;;;;5094833;28;20235;-71
2023/06/18 11:45:18;;;;;;;6.03;5.38;;;40.90;20.40;;;;;;5095003;28;20273;-71
2023/06/18 11:47:48;;;;;;;7.53;5.30;;;40.60;20.60;;;;;;5094503;28;20204;-72
2023/06/18 11:50:15;;;;;;;5.72;5.30;;;40.20;21.10;;;;;;5094221;28;20201;-72
2023/06/18 11:52:44;;;;;;;6.57;5.38;;;39.70;21.70;;;;;;5093743;28;20227;-71
2023/06/18 11:55:11;;;;;;;6.38;5.88;;;39.20;22.10;;;;;;5092824;28;20205;-72
2023/06/18 11:57:38;;;;;;;6.22;5.63;;;38.80;22.60;;;;;;5094542;28;20221;-72
2023/06/18 12:00:08;;;;;;;6.47;5.88;;;38.30;23.00;;;;;;5094426;28;20212;-73
2023/06/18 12:02:38;;;;;;;6.20;5.70;;;37.90;23.60;;;;;;5095193;28;20229;-72
2023/06/18 12:05:06;;;;;;;7.03;6.20;;;37.50;24.30;;;;;;5095477;28;20611;-71
2023/06/18 12:07:33;;;;;;;7.67;6.47;;;37.20;25.00;;;;;;5103722;28;20204;-72
2023/06/18 12:10:08;;;;;;;7.00;6.30;;;36.90;25.30;;;;;;5096715;28;20197;-71
2023/06/18 12:12:44;;;;;;;9.40;6.70;;;36.50;25.20;;;;;;5095793;28;20219;-71
2023/06/18 12:15:19;;;;;;;6.07;5.47;;;36.10;25.10;;;;;;5096172;28;20476;-72
2023/06/18 12:17:58;;;;;;;9.33;6.13;;;35.80;25.70;;;;;;5094859;28;20482;-72
2023/06/18 12:20:27;;;;;;;6.93;6.13;;;35.50;26.60;;;;;;5094624;28;20428;-72
2023/06/18 12:22:55;;;;;;;6.93;6.33;;;35.20;27.00;;;;;;5094515;28;20471;-72
2023/06/18 12:25:26;;;;;;;6.83;6.00;;;34.90;27.70;;;;;;5094584;28;20494;-72
2023/06/18 12:27:54;;;;;;;7.17;6.57;;;34.70;27.80;;;;;;5094936;28;20431;-71
2023/06/18 12:30:28;;;;;;;7.53;6.67;;;34.40;28.40;;;;;;5093169;28;20462;-72
2023/06/18 12:33:03;;;;;;;6.80;6.20;;;34.30;29.10;;;;;;5094455;28;20459;-71
2023/06/18 12:35:31;;;;;;;7.13;6.43;;;34.10;29.50;;;;;;5094078;28;20455;-73
2023/06/18 12:38:03;;;;;;;7.40;6.30;;;34.00;30.00;;;;;;5093840;28;20482;-72
2023/06/18 12:40:32;;;;;;;7.17;6.57;;;33.80;30.50;;;;;;5094166;28;20488;-72
2023/06/18 12:43:00;;;;;;;6.43;5.93;;;33.70;30.40;;;;;;5093682;28;20498;-71
2023/06/18 12:45:28;;;;;;;6.50;6.10;;;33.70;30.60;;;;;;5094191;28;20455;-72
2023/06/18 12:47:55;;;;;;;6.93;6.33;;;33.60;30.80;;;;;;5094487;28;20454;-72
2023/06/18 12:50:41;;;;;;;6.77;6.27;;;33.60;30.90;;;;;;5093818;28;20458;-72
2023/06/18 12:53:14;;;;;;;7.20;6.70;;;33.60;31.10;;;;;;5096167;28;20562;-71